Aérodrome :
LOGIN :

S'inscrire | Disclaimer

   EN    FR    IT 

 










Légende :    VFR   VFR Marginal   IFR   IFR Intensif   IFR Très Intensif
Visi : 
Plafond : 
>= 8 km
>= 3000ft
5 à 8 km
1000 à 3000 ft
1500m à 5 km
500 à 1000 ft
800 à 1500m
200 à 500 ft
< 800m
< 200 ft
Symboles :   Orages  Brouillard  Fortes neiges  Fortes précipitations  Vent > 20 kt
SIGMETs :   Divers  Orages  Givrage  Turbulence  Onde Orograph.  Cendres Volcan.







- Altitude de l'aérodrome : 681 ft
- Code IATA : LBA
- Voir les cartes d'approche


EGNM - Leeds Bradford

DERNIER METAR :
  • 212220Z 36005KT 9999 FEW015 02/01 Q1027

METARs EXPIRÉS :
  • 212150Z VRB03KT CAVOK 02/01 Q1027
  • 212120Z 35002KT CAVOK 02/01 Q1027
  • 212050Z VRB03KT CAVOK 02/01 Q1027
  • 212020Z 02004KT 9999 FEW015 02/01 Q1027
  • 211950Z 02002KT 9999 FEW015 03/01 Q1027

TAF TAF EGNM
Valide du 21 à 18h jusqu'au 22 à 18h UTC


211704Z 2118/2218 06006KT 9999 FEW015 SCT025
PROB30 2122/2124 6000
BECMG 2200/2203 3000 BR BKN003
PROB30 2203/2209 0300 FG BKN001
BECMG 2209/2212 13010KT 9999 NSW SCT030
ATIS : +44 113 250 9696 (x2489)
Pas de NOTAMs connus pour ce terrain.



MET'MAP, la Météo Aéronautique d'un coup d'oeil ! - Copyright ORBIFLY Décembre 2007 - Disclaimer

ORBIFLY MET'MAP TEAM :

Programmation & Développement : Alexandra Zaïnal
Conception & Développement : Baudouin d'Aumeries
Co-Programmation & Développement : Marc-Olivier Méhu
Soutien technique & logistique : Manuel Goepfert

Contact : metmap@orbifly.com




SOURCES & CREDITS :

   NOAA